createdAt,value
2023-02-11T00:01:34.936Z,44.13
2023-02-11T00:04:06.576Z,45.57
2023-02-11T00:06:36.464Z,41.63
2023-02-11T00:09:05.338Z,44.67
2023-02-11T00:11:33.496Z,43.37
2023-02-11T00:14:03.532Z,42.07
2023-02-11T00:16:32.497Z,52.27
2023-02-11T00:19:01.340Z,47.57
2023-02-11T00:21:31.186Z,42.47
2023-02-11T00:24:02.241Z,43.53
2023-02-11T00:26:32.230Z,39.87
2023-02-11T00:29:00.934Z,42.80
2023-02-11T00:31:32.193Z,44.47
2023-02-11T00:34:00.598Z,36.43
2023-02-11T00:36:30.990Z,37.73
2023-02-11T00:39:00.410Z,39.43
2023-02-11T00:41:28.757Z,36.40
2023-02-11T00:43:56.954Z,44.23
2023-02-11T00:46:25.473Z,37.53
2023-02-11T00:48:57.779Z,41.30
2023-02-11T00:51:26.808Z,43.43
2023-02-11T00:53:56.830Z,46.17
2023-02-11T00:56:24.991Z,43.60
2023-02-11T00:58:53.458Z,36.70
2023-02-11T01:01:21.989Z,37.40
2023-02-11T01:03:50.565Z,36.30
2023-02-11T01:06:19.430Z,26.30
2023-02-11T01:08:47.626Z,31.43
2023-02-11T01:11:19.177Z,44.87
2023-02-11T01:13:48.944Z,44.20
2023-02-11T01:16:17.804Z,41.07
2023-02-11T01:18:46.197Z,41.40
2023-02-11T01:21:14.926Z,43.90
2023-02-11T01:23:43.268Z,35.67
2023-02-11T01:26:11.506Z,41.50
2023-02-11T01:28:41.202Z,39.93
2023-02-11T01:31:09.466Z,47.63
2023-02-11T01:33:37.657Z,43.53
2023-02-11T01:36:07.335Z,38.47
2023-02-11T01:38:36.393Z,42.37
2023-02-11T01:41:06.937Z,32.23
2023-02-11T01:43:37.738Z,44.70
2023-02-11T01:46:35.980Z,45.83
2023-02-11T01:49:08.060Z,45.97
2023-02-11T01:51:41.115Z,41.87
2023-02-11T01:54:26.398Z,33.93
2023-02-11T01:57:15.450Z,44.60
2023-02-11T01:59:49.702Z,35.90
2023-02-11T02:02:24.432Z,42.27
2023-02-11T02:04:57.005Z,41.53
2023-02-11T02:07:34.450Z,38.97
2023-02-11T02:10:06.281Z,40.40
2023-02-11T02:12:34.645Z,39.37
2023-02-11T02:15:23.465Z,39.83
2023-02-11T02:17:59.878Z,42.37
2023-02-11T02:20:54.564Z,44.47
2023-02-11T02:23:30.018Z,35.57
2023-02-11T02:26:21.073Z,45.63
2023-02-11T02:29:12.547Z,47.17
2023-02-11T02:32:05.124Z,42.10
2023-02-11T02:34:41.382Z,49.10
2023-02-11T02:37:14.129Z,49.60
2023-02-11T02:39:42.331Z,56.03
2023-02-11T02:42:11.466Z,51.93
2023-02-11T02:44:39.702Z,51.03
2023-02-11T02:47:08.018Z,56.93
2023-02-11T02:49:37.643Z,49.30
2023-02-11T02:52:17.436Z,49.10
2023-02-11T02:55:23.567Z,58.47
2023-02-11T02:58:04.400Z,51.23
2023-02-11T03:00:44.253Z,50.77
2023-02-11T03:03:22.959Z,54.40
2023-02-11T03:05:58.191Z,46.17
2023-02-11T03:08:32.416Z,46.40
2023-02-11T03:11:02.977Z,46.90
2023-02-11T03:13:35.291Z,55.80
2023-02-11T03:16:09.773Z,42.00
2023-02-11T03:18:41.265Z,48.27
2023-02-11T03:21:12.356Z,56.60
2023-02-11T03:23:43.832Z,54.90
2023-02-11T03:26:19.936Z,45.77
2023-02-11T03:28:56.136Z,50.60
2023-02-11T03:31:32.394Z,60.67
2023-02-11T03:34:08.894Z,54.53
2023-02-11T03:36:47.427Z,52.67
2023-02-11T03:39:20.066Z,51.90
2023-02-11T03:41:51.243Z,48.27
2023-02-11T03:44:21.370Z,46.93
2023-02-11T03:46:52.750Z,45.40
2023-02-11T03:49:23.875Z,46.00
2023-02-11T03:51:55.068Z,43.33
2023-02-11T03:54:29.737Z,46.67
2023-02-11T03:57:00.880Z,42.73
2023-02-11T03:59:30.341Z,43.23
2023-02-11T04:01:59.642Z,40.73
2023-02-11T04:04:27.901Z,45.90
2023-02-11T04:06:57.781Z,42.23
2023-02-11T04:09:25.867Z,38.07
2023-02-11T04:11:54.178Z,46.80
2023-02-11T04:14:22.398Z,39.23
2023-02-11T04:16:50.515Z,48.10
2023-02-11T04:19:18.868Z,39.07
2023-02-11T04:21:47.271Z,32.67
2023-02-11T04:24:16.992Z,41.80
2023-02-11T04:26:45.219Z,36.70
2023-02-11T04:29:13.437Z,37.17
2023-02-11T04:31:41.692Z,38.67
2023-02-11T04:34:09.869Z,34.23
2023-02-11T04:36:38.126Z,35.17
2023-02-11T04:39:06.731Z,42.50
2023-02-11T04:41:36.443Z,38.37
2023-02-11T04:44:05.211Z,41.10
2023-02-11T04:46:33.364Z,45.17
2023-02-11T04:49:01.626Z,45.80
2023-02-11T04:51:29.821Z,43.27
2023-02-11T04:53:57.900Z,43.30
2023-02-11T04:56:26.119Z,47.97
2023-02-11T04:58:56.138Z,47.93
2023-02-11T05:01:24.472Z,41.83
2023-02-11T05:03:53.016Z,47.63
2023-02-11T05:06:21.240Z,50.97
2023-02-11T05:08:49.826Z,46.00
2023-02-11T05:11:19.909Z,53.87
2023-02-11T05:13:48.297Z,39.90
2023-02-11T05:16:18.497Z,43.97
2023-02-11T05:18:47.419Z,45.87
2023-02-11T05:21:17.906Z,45.07
2023-02-11T05:23:46.701Z,38.63
2023-02-11T05:26:15.498Z,40.83
2023-02-11T05:28:44.007Z,40.87
2023-02-11T05:31:14.824Z,45.77
2023-02-11T05:33:44.915Z,45.63
2023-02-11T05:36:14.509Z,50.03
2023-02-11T05:38:43.467Z,48.07
2023-02-11T05:41:12.700Z,44.80
2023-02-11T05:43:40.817Z,42.27
2023-02-11T05:46:10.475Z,37.03
2023-02-11T05:48:39.043Z,44.60
2023-02-11T05:51:08.959Z,37.13
2023-02-11T05:53:37.091Z,32.20
2023-02-11T05:56:05.652Z,35.67
2023-02-11T05:58:34.251Z,38.97
2023-02-11T06:01:02.266Z,39.10
2023-02-11T06:03:30.607Z,36.00
2023-02-11T06:05:58.872Z,35.57
2023-02-11T06:08:28.626Z,38.03
2023-02-11T06:11:01.640Z,28.93
2023-02-11T06:13:31.325Z,39.67
2023-02-11T06:16:00.851Z,31.77
2023-02-11T06:18:29.529Z,31.50
2023-02-11T06:20:58.005Z,29.70
2023-02-11T06:23:29.120Z,34.63
2023-02-11T06:26:03.452Z,37.47
2023-02-11T06:28:32.660Z,33.83
2023-02-11T06:31:06.625Z,29.37
2023-02-11T06:33:35.512Z,32.27
2023-02-11T06:36:04.918Z,34.63
2023-02-11T06:38:32.900Z,33.20
2023-02-11T06:41:02.532Z,30.03
2023-02-11T06:43:33.046Z,35.67
2023-02-11T06:46:01.197Z,26.00
2023-02-11T06:48:29.511Z,28.47
2023-02-11T06:50:57.627Z,27.77
2023-02-11T06:53:25.702Z,27.53
2023-02-11T06:55:53.876Z,31.33
2023-02-11T06:58:23.526Z,30.63
2023-02-11T07:00:52.367Z,27.07
2023-02-11T07:03:20.734Z,30.73
2023-02-11T07:05:49.311Z,23.50
2023-02-11T07:08:17.805Z,24.27
2023-02-11T07:10:46.261Z,21.73
2023-02-11T07:13:14.605Z,24.40
2023-02-11T07:15:48.076Z,25.63
2023-02-11T07:18:16.391Z,20.93
2023-02-11T07:20:44.830Z,15.10
2023-02-11T07:23:13.228Z,18.33
2023-02-11T07:25:42.307Z,19.93
2023-02-11T07:28:10.445Z,15.50
2023-02-11T07:30:38.643Z,15.33
2023-02-11T07:33:08.351Z,21.07
2023-02-11T07:35:36.502Z,18.77
2023-02-11T07:38:05.034Z,15.83
2023-02-11T07:40:33.388Z,21.53
2023-02-11T07:43:02.133Z,20.50
2023-02-11T07:45:30.841Z,16.10
2023-02-11T07:47:59.169Z,19.60
2023-02-11T07:50:28.725Z,21.67
2023-02-11T07:52:57.797Z,18.33
2023-02-11T07:55:26.363Z,17.03
2023-02-11T07:57:54.558Z,19.87
2023-02-11T08:00:23.810Z,18.13
2023-02-11T08:02:52.025Z,19.63
2023-02-11T08:05:20.984Z,17.50
2023-02-11T08:07:52.514Z,19.67
2023-02-11T08:10:21.632Z,19.97
2023-02-11T08:12:50.076Z,20.23
2023-02-11T08:15:18.646Z,20.03
2023-02-11T08:17:46.840Z,16.80
2023-02-11T08:20:14.993Z,13.37
2023-02-11T08:23:01.329Z,16.70
2023-02-11T08:25:30.945Z,15.70
2023-02-11T08:28:03.369Z,16.50
2023-02-11T08:30:38.326Z,13.70
2023-02-11T08:33:06.586Z,19.03
2023-02-11T08:35:37.262Z,16.60
2023-02-11T08:38:05.320Z,21.20
2023-02-11T08:40:35.044Z,20.17
2023-02-11T08:43:07.984Z,24.73
2023-02-11T08:45:36.488Z,21.13
2023-02-11T08:48:08.583Z,20.80
2023-02-11T08:50:38.832Z,23.33
2023-02-11T08:53:07.038Z,22.43
2023-02-11T08:55:36.606Z,22.13
2023-02-11T08:58:04.904Z,22.67
2023-02-11T09:00:33.192Z,27.63
2023-02-11T09:03:01.563Z,23.63
2023-02-11T09:05:29.773Z,22.23
2023-02-11T09:07:57.921Z,23.80
2023-02-11T09:10:26.135Z,22.40
2023-02-11T09:12:56.000Z,23.10
2023-02-11T09:15:24.210Z,26.13
2023-02-11T09:17:52.313Z,26.83
2023-02-11T09:20:21.733Z,30.27
2023-02-11T09:22:50.534Z,28.00
2023-02-11T09:25:19.283Z,31.93
2023-02-11T09:27:47.885Z,34.03
2023-02-11T09:30:18.540Z,33.03
2023-02-11T09:32:46.744Z,30.80
2023-02-11T09:35:17.746Z,26.20
2023-02-11T09:37:45.859Z,29.63
2023-02-11T09:40:15.581Z,29.50
2023-02-11T09:42:53.129Z,25.43
2023-02-11T09:45:27.454Z,33.33
2023-02-11T09:47:59.250Z,31.73
2023-02-11T09:50:33.883Z,26.17
2023-02-11T09:53:07.313Z,33.83
2023-02-11T09:55:39.512Z,29.07
2023-02-11T09:58:14.460Z,26.17
2023-02-11T10:00:48.872Z,26.97
2023-02-11T10:03:53.311Z,28.80
2023-02-11T10:06:44.383Z,27.73
2023-02-11T10:09:28.824Z,25.50
2023-02-11T10:12:05.542Z,25.63
2023-02-11T10:14:59.672Z,20.63
2023-02-11T10:17:41.475Z,28.00
2023-02-11T10:20:22.933Z,36.47
2023-02-11T10:22:54.737Z,27.40
2023-02-11T10:25:27.286Z,28.50
2023-02-11T10:27:58.298Z,30.67
2023-02-11T10:30:32.120Z,28.20
2023-02-11T10:33:08.109Z,24.90
2023-02-11T10:35:36.618Z,26.50
2023-02-11T10:38:05.018Z,32.30
2023-02-11T10:40:33.930Z,28.00
2023-02-11T10:45:58.692Z,28.93
2023-02-11T10:48:44.617Z,30.80
2023-02-11T10:51:20.368Z,32.50
2023-02-11T10:53:50.082Z,29.87
2023-02-11T10:56:25.164Z,24.80
2023-02-11T10:59:00.286Z,26.93
2023-02-11T11:01:47.940Z,30.00
2023-02-11T11:04:45.635Z,29.50
2023-02-11T11:07:21.219Z,30.67
2023-02-11T11:09:52.947Z,33.83
2023-02-11T11:12:30.428Z,27.33
2023-02-11T11:15:01.552Z,29.73
2023-02-11T11:17:30.175Z,26.10
2023-02-11T11:20:21.107Z,23.03
2023-02-11T11:22:50.534Z,26.13
2023-02-11T11:25:28.200Z,26.60
2023-02-11T11:27:59.247Z,32.00
2023-02-11T11:30:33.346Z,29.70
2023-02-11T11:33:02.927Z,27.87
2023-02-11T11:35:34.270Z,36.43
2023-02-11T11:38:05.611Z,30.23
2023-02-11T11:40:35.604Z,30.33
2023-02-11T11:43:08.638Z,28.57
2023-02-11T11:45:37.161Z,33.07
2023-02-11T11:48:14.484Z,25.67
2023-02-11T11:50:49.306Z,24.90
2023-02-11T11:53:25.388Z,26.43
2023-02-11T11:56:02.053Z,27.07
2023-02-11T11:58:32.267Z,26.97
2023-02-11T12:01:10.965Z,30.23
2023-02-11T12:04:13.110Z,29.23
2023-02-11T12:06:55.277Z,27.87
2023-02-11T12:09:32.174Z,26.07
2023-02-11T12:12:17.578Z,30.37
2023-02-11T12:14:58.093Z,24.03
2023-02-11T12:17:50.024Z,25.37
2023-02-11T12:20:26.697Z,26.93
2023-02-11T12:23:23.195Z,25.40
2023-02-11T12:26:01.680Z,27.10
2023-02-11T12:28:39.906Z,28.93
2023-02-11T12:31:27.179Z,28.63
2023-02-11T12:34:25.345Z,29.60
2023-02-11T12:37:03.094Z,29.03
2023-02-11T12:39:43.625Z,28.53
2023-02-11T12:42:51.734Z,32.27
2023-02-11T12:45:29.613Z,35.60
2023-02-11T12:48:09.406Z,27.17
2023-02-11T12:50:47.620Z,29.50
2023-02-11T12:53:32.005Z,27.00
2023-02-11T12:56:07.810Z,31.40
2023-02-11T12:58:45.398Z,30.43
2023-02-11T13:01:22.569Z,31.03
2023-02-11T13:03:55.939Z,28.37
2023-02-11T13:06:32.769Z,36.27
2023-02-11T13:09:03.416Z,33.63
2023-02-11T13:11:40.064Z,31.90
2023-02-11T13:14:15.698Z,37.87
2023-02-11T13:16:46.683Z,28.23
2023-02-11T13:19:25.152Z,30.60
2023-02-11T13:22:03.713Z,24.40
2023-02-11T13:24:41.031Z,36.97
2023-02-11T13:27:19.976Z,29.07
2023-02-11T13:30:18.708Z,30.03
2023-02-11T13:33:06.872Z,24.93
2023-02-11T13:35:37.068Z,29.90
2023-02-11T13:38:07.842Z,23.63
2023-02-11T13:40:39.325Z,39.53
2023-02-11T13:43:22.764Z,29.30
2023-02-11T13:45:52.952Z,31.70
2023-02-11T13:48:26.303Z,30.43
2023-02-11T13:50:58.202Z,31.63
2023-02-11T13:53:28.190Z,28.30
2023-02-11T13:56:09.519Z,33.83
2023-02-11T13:58:49.093Z,34.13
2023-02-11T14:01:41.849Z,32.17
2023-02-11T14:04:41.585Z,29.70
2023-02-11T14:07:48.092Z,29.53
2023-02-11T14:10:51.553Z,31.20
2023-02-11T14:13:25.389Z,24.77
2023-02-11T14:16:08.526Z,29.70
2023-02-11T14:19:02.019Z,35.87
2023-02-11T14:21:39.637Z,24.83
2023-02-11T14:24:56.754Z,32.53
2023-02-11T14:27:33.005Z,31.70
2023-02-11T14:30:21.129Z,28.27
2023-02-11T14:33:13.132Z,30.10
2023-02-11T14:35:52.772Z,26.30
2023-02-11T14:38:29.994Z,27.43
2023-02-11T14:41:07.841Z,29.53
2023-02-11T14:43:39.980Z,28.50
2023-02-11T14:46:08.956Z,32.97
2023-02-11T14:48:44.491Z,34.87
2023-02-11T14:51:17.646Z,26.27
2023-02-11T14:53:50.428Z,27.70
2023-02-11T14:56:22.119Z,31.87
2023-02-11T14:58:52.997Z,25.10
2023-02-11T15:01:28.972Z,26.37
2023-02-11T15:04:00.363Z,29.40
2023-02-11T15:06:32.868Z,32.33
2023-02-11T15:09:05.650Z,23.73
2023-02-11T15:11:39.413Z,28.93
2023-02-11T15:14:10.601Z,35.77
2023-02-11T15:16:43.564Z,31.27
2023-02-11T15:19:23.401Z,34.40
2023-02-11T15:21:53.605Z,28.37
2023-02-11T15:24:27.744Z,33.07
2023-02-11T15:27:01.264Z,29.23
2023-02-11T15:29:36.728Z,29.30
2023-02-11T15:32:14.781Z,26.73
2023-02-11T15:34:45.977Z,28.37
2023-02-11T15:37:18.828Z,25.63
2023-02-11T15:39:47.080Z,27.53
2023-02-11T15:42:26.817Z,28.13
2023-02-11T15:45:23.893Z,30.77
2023-02-11T15:47:55.152Z,29.93
2023-02-11T15:50:27.272Z,29.27
2023-02-11T15:52:57.986Z,29.43
2023-02-11T15:55:28.128Z,29.87
2023-02-11T15:57:59.434Z,27.67
2023-02-11T16:00:38.665Z,27.80
2023-02-11T16:03:07.110Z,30.40
2023-02-11T16:05:38.852Z,26.87
2023-02-11T16:08:22.398Z,25.80
2023-02-11T16:10:58.850Z,26.77
2023-02-11T16:13:30.856Z,28.97
2023-02-11T16:16:04.664Z,24.17
2023-02-11T16:18:52.045Z,30.13
2023-02-11T16:21:32.854Z,30.73
2023-02-11T16:24:01.813Z,34.17
2023-02-11T16:26:33.978Z,35.13
2023-02-11T16:29:08.052Z,37.67
2023-02-11T16:31:40.017Z,33.93
2023-02-11T16:34:16.008Z,33.93
2023-02-11T16:36:45.940Z,38.67
2023-02-11T16:39:14.415Z,36.57
2023-02-11T16:41:42.565Z,35.83
2023-02-11T16:44:10.792Z,29.60
2023-02-11T16:46:39.300Z,26.97
2023-02-11T16:49:12.282Z,31.77
2023-02-11T16:51:42.580Z,41.53
2023-02-11T16:54:16.349Z,36.00
2023-02-11T16:56:53.274Z,34.37
2023-02-11T16:59:21.719Z,29.47
2023-02-11T17:01:51.248Z,44.30
2023-02-11T17:04:25.094Z,60.07
2023-02-11T17:06:53.416Z,39.00
2023-02-11T17:09:27.107Z,39.43
2023-02-11T17:11:56.480Z,35.67
2023-02-11T17:14:24.671Z,30.57
2023-02-11T17:16:53.149Z,35.73
2023-02-11T17:19:22.416Z,28.63
2023-02-11T17:21:52.629Z,35.43
2023-02-11T17:24:23.843Z,32.67
2023-02-11T17:26:52.858Z,33.23
2023-02-11T17:29:23.798Z,29.83
2023-02-11T17:31:53.099Z,37.10
2023-02-11T17:34:22.755Z,57.30
2023-02-11T17:36:51.866Z,33.00
2023-02-11T17:39:21.385Z,37.00
2023-02-11T17:41:51.065Z,44.10
2023-02-11T17:44:19.861Z,30.40
2023-02-11T17:46:48.211Z,30.73
2023-02-11T17:49:16.415Z,35.63
2023-02-11T17:51:44.881Z,32.40
2023-02-11T17:54:15.398Z,29.97
2023-02-11T17:56:44.297Z,30.40
2023-02-11T17:59:14.710Z,29.53
2023-02-11T18:01:44.286Z,28.60
2023-02-11T18:04:15.832Z,34.23
2023-02-11T18:06:44.688Z,31.93
2023-02-11T18:09:14.425Z,37.07
2023-02-11T18:11:43.387Z,45.07
2023-02-11T18:14:13.634Z,39.83
2023-02-11T18:16:43.800Z,31.00
2023-02-11T18:19:12.837Z,33.03
2023-02-11T18:21:41.820Z,53.40
2023-02-11T18:24:14.363Z,35.17
2023-02-11T18:26:43.115Z,29.60
2023-02-11T18:29:11.372Z,32.07
2023-02-11T18:31:41.125Z,38.30
2023-02-11T18:34:13.315Z,52.53
2023-02-11T18:36:41.624Z,41.37
2023-02-11T18:39:09.795Z,55.53
2023-02-11T18:41:40.095Z,35.60
2023-02-11T18:44:08.386Z,30.57
2023-02-11T18:46:36.657Z,41.73
2023-02-11T18:49:06.218Z,42.47
2023-02-11T18:51:34.973Z,28.67
2023-02-11T18:54:03.284Z,39.90
2023-02-11T18:56:31.440Z,34.30
2023-02-11T18:59:01.521Z,43.67
2023-02-11T19:01:31.673Z,35.47
2023-02-11T19:04:03.093Z,36.03
2023-02-11T19:06:37.850Z,40.03
2023-02-11T19:09:10.086Z,34.60
2023-02-11T19:11:50.514Z,40.97
2023-02-11T19:14:22.146Z,34.23
2023-02-11T19:16:51.795Z,37.03
2023-02-11T19:19:22.312Z,38.93
2023-02-11T19:21:53.856Z,32.60
2023-02-11T19:24:23.567Z,46.77
2023-02-11T19:26:53.521Z,36.10
2023-02-11T19:29:22.323Z,40.70
2023-02-11T19:31:50.602Z,37.80
2023-02-11T19:34:20.704Z,36.80
2023-02-11T19:36:49.943Z,46.77
2023-02-11T19:39:19.652Z,37.67
2023-02-11T19:41:47.918Z,35.53
2023-02-11T19:44:16.981Z,30.03
2023-02-11T19:46:52.896Z,35.67
2023-02-11T19:49:26.035Z,33.27
2023-02-11T19:51:55.618Z,36.10
2023-02-11T19:54:27.447Z,42.03
2023-02-11T19:56:55.828Z,31.97
2023-02-11T19:59:26.298Z,46.40
2023-02-11T20:01:54.617Z,39.10
2023-02-11T20:04:25.187Z,48.63
2023-02-11T20:06:56.302Z,40.40
2023-02-11T20:09:26.674Z,39.77
2023-02-11T20:11:55.080Z,45.53
2023-02-11T20:14:26.154Z,46.10
2023-02-11T20:16:55.782Z,42.17
2023-02-11T20:19:24.449Z,49.27
2023-02-11T20:21:55.995Z,48.73
2023-02-11T20:24:28.032Z,43.40
2023-02-11T20:26:57.538Z,44.97
2023-02-11T20:29:26.680Z,48.50
2023-02-11T20:31:58.638Z,44.43
2023-02-11T20:34:27.124Z,39.60
2023-02-11T20:36:57.293Z,44.57
2023-02-11T20:39:27.284Z,44.93
2023-02-11T20:41:56.666Z,42.87
2023-02-11T20:44:26.501Z,49.03
2023-02-11T20:46:54.976Z,46.17
2023-02-11T20:49:27.207Z,40.60
2023-02-11T20:51:56.955Z,52.03
2023-02-11T20:54:27.553Z,48.20
2023-02-11T20:57:02.577Z,53.40
2023-02-11T20:59:32.095Z,42.33
2023-02-11T21:02:00.303Z,52.20
2023-02-11T21:04:31.433Z,49.77
2023-02-11T21:07:01.929Z,52.63
2023-02-11T21:09:33.567Z,49.53
2023-02-11T21:12:04.359Z,59.67
2023-02-11T21:14:33.545Z,50.83
2023-02-11T21:17:02.173Z,63.33
2023-02-11T21:19:30.377Z,50.50
2023-02-11T21:22:00.699Z,49.00
2023-02-11T21:24:30.984Z,62.60
2023-02-11T21:27:01.097Z,45.57
2023-02-11T21:29:29.296Z,49.40
2023-02-11T21:31:57.689Z,45.03
2023-02-11T21:34:26.109Z,51.87
2023-02-11T21:36:54.493Z,46.83
2023-02-11T21:39:22.954Z,53.30
2023-02-11T21:41:51.671Z,48.97
2023-02-11T21:44:21.267Z,49.23
2023-02-11T21:46:49.908Z,54.40
2023-02-11T21:49:19.808Z,57.17
2023-02-11T21:51:48.683Z,50.30
2023-02-11T21:54:18.885Z,56.67
2023-02-11T21:56:49.887Z,50.57
2023-02-11T21:59:19.041Z,58.93
2023-02-11T22:01:48.788Z,63.77
2023-02-11T22:04:17.195Z,43.43
2023-02-11T22:06:45.392Z,57.57
2023-02-11T22:09:13.655Z,59.57
2023-02-11T22:11:41.770Z,53.27
2023-02-11T22:14:10.011Z,61.63
2023-02-11T22:16:38.849Z,51.03
2023-02-11T22:19:08.502Z,52.77
2023-02-11T22:21:37.039Z,54.23
2023-02-11T22:24:06.235Z,52.60
2023-02-11T22:26:34.676Z,50.07
2023-02-11T22:29:03.143Z,56.67
2023-02-11T22:31:34.144Z,57.80
2023-02-11T22:34:03.404Z,57.97
2023-02-11T22:36:35.037Z,53.53
2023-02-11T22:39:05.236Z,56.90
2023-02-11T22:41:33.578Z,49.20
2023-02-11T22:44:02.340Z,54.03
2023-02-11T22:46:30.571Z,56.10
2023-02-11T22:48:58.859Z,55.77
2023-02-11T22:51:29.435Z,56.83
2023-02-11T22:54:00.715Z,49.60
2023-02-11T22:56:31.013Z,58.90
2023-02-11T22:59:00.265Z,54.97
2023-02-11T23:01:28.717Z,59.90
2023-02-11T23:03:57.373Z,57.33
2023-02-11T23:06:27.020Z,48.83
2023-02-11T23:08:56.139Z,56.27
2023-02-11T23:11:28.306Z,54.17
2023-02-11T23:13:57.488Z,60.40
2023-02-11T23:16:27.764Z,51.20
2023-02-11T23:18:56.572Z,49.73
2023-02-11T23:21:30.767Z,54.70
2023-02-11T23:24:01.248Z,54.27
2023-02-11T23:26:31.059Z,56.90
2023-02-11T23:29:00.118Z,51.27
2023-02-11T23:31:31.307Z,49.70
2023-02-11T23:33:59.561Z,51.60
2023-02-11T23:36:28.120Z,53.17
2023-02-11T23:38:56.646Z,55.70
2023-02-11T23:41:25.399Z,53.27
2023-02-11T23:43:56.957Z,56.27
2023-02-11T23:46:26.428Z,65.90
2023-02-11T23:48:55.084Z,58.50
2023-02-11T23:51:24.553Z,54.93
2023-02-11T23:53:56.290Z,62.60
2023-02-11T23:56:28.304Z,51.13
2023-02-11T23:58:59.426Z,58.17
